createdAt,value
2023-05-10T00:00:38.891Z,12.07
2023-05-10T00:01:38.917Z,12.06
2023-05-10T00:02:39.087Z,12.06
2023-05-10T00:03:38.956Z,12.07
2023-05-10T00:04:38.831Z,12.07
2023-05-10T00:05:38.811Z,12.00
2023-05-10T00:06:38.834Z,12.06
2023-05-10T00:07:38.780Z,12.04
2023-05-10T00:08:38.782Z,12.06
2023-05-10T00:09:38.767Z,12.02
2023-05-10T00:10:38.747Z,11.99
2023-05-10T00:11:38.742Z,12.04
2023-05-10T00:12:38.728Z,12.02
2023-05-10T00:13:38.720Z,11.94
2023-05-10T00:14:38.696Z,11.90
2023-05-10T00:15:38.701Z,11.90
2023-05-10T00:16:38.737Z,11.87
2023-05-10T00:17:38.732Z,11.86
2023-05-10T00:18:38.677Z,11.88
2023-05-10T00:19:38.694Z,11.88
2023-05-10T00:20:38.638Z,11.81
2023-05-10T00:21:38.641Z,11.81
2023-05-10T00:22:38.700Z,11.83
2023-05-10T00:23:38.589Z,11.77
2023-05-10T00:24:38.580Z,11.81
2023-05-10T00:25:38.577Z,11.77
2023-05-10T00:26:38.561Z,11.77
2023-05-10T00:27:38.568Z,11.75
2023-05-10T00:28:38.525Z,11.75
2023-05-10T00:29:38.515Z,11.77
2023-05-10T00:30:38.498Z,11.77
2023-05-10T00:31:38.510Z,11.72
2023-05-10T00:32:38.483Z,11.73
2023-05-10T00:33:38.458Z,11.77
2023-05-10T00:34:38.454Z,11.70
2023-05-10T00:35:38.445Z,11.75
2023-05-10T00:36:38.421Z,11.70
2023-05-10T00:37:38.427Z,11.66
2023-05-10T00:38:38.421Z,11.66
2023-05-10T00:39:38.389Z,11.63
2023-05-10T00:40:38.376Z,11.68
2023-05-10T00:41:38.354Z,11.68
2023-05-10T00:42:38.347Z,11.68
2023-05-10T00:43:38.344Z,11.66
2023-05-10T00:44:38.318Z,11.65
2023-05-10T00:45:38.316Z,11.72
2023-05-10T00:46:38.354Z,11.69
2023-05-10T00:47:38.297Z,11.68
2023-05-10T00:48:38.261Z,11.70
2023-05-10T00:49:38.246Z,11.63
2023-05-10T00:50:38.241Z,11.60
2023-05-10T00:51:38.229Z,11.59
2023-05-10T00:52:38.226Z,11.54
2023-05-10T00:53:38.199Z,11.54
2023-05-10T00:54:38.303Z,11.55
2023-05-10T00:55:38.167Z,11.50
2023-05-10T00:56:38.153Z,11.51
2023-05-10T00:57:38.152Z,11.50
2023-05-10T00:58:38.126Z,11.47
2023-05-10T00:59:38.121Z,11.48
2023-05-10T01:00:38.111Z,11.43
2023-05-10T01:01:38.101Z,11.48
2023-05-10T01:02:38.134Z,11.44
2023-05-10T01:03:38.134Z,11.47
2023-05-10T01:04:38.204Z,11.47
2023-05-10T01:05:38.046Z,11.51
2023-05-10T01:06:38.024Z,11.48
2023-05-10T01:07:38.014Z,11.50
2023-05-10T01:08:38.002Z,11.50
2023-05-10T01:09:37.992Z,11.48
2023-05-10T01:10:38.020Z,11.43
2023-05-10T01:11:37.990Z,11.45
2023-05-10T01:12:38.012Z,11.44
2023-05-10T01:13:37.939Z,11.44
2023-05-10T01:14:37.943Z,11.41
2023-05-10T01:15:38.010Z,11.43
2023-05-10T01:16:37.908Z,11.44
2023-05-10T01:17:37.948Z,11.45
2023-05-10T01:18:37.877Z,11.47
2023-05-10T01:19:37.862Z,11.47
2023-05-10T01:20:37.849Z,11.48
2023-05-10T01:21:37.842Z,11.45
2023-05-10T01:22:37.834Z,11.47
2023-05-10T01:23:37.827Z,11.48
2023-05-10T01:24:37.806Z,11.45
2023-05-10T01:25:37.790Z,11.47
2023-05-10T01:26:37.807Z,11.50
2023-05-10T01:27:37.769Z,11.52
2023-05-10T01:28:37.749Z,11.50
2023-05-10T01:29:37.731Z,11.50
2023-05-10T01:30:37.732Z,11.47
2023-05-10T01:31:37.746Z,11.43
2023-05-10T01:32:37.723Z,11.41
2023-05-10T01:33:37.688Z,11.40
2023-05-10T01:34:37.669Z,11.44
2023-05-10T01:35:37.658Z,11.47
2023-05-10T01:36:37.647Z,11.48
2023-05-10T01:37:37.638Z,11.51
2023-05-10T01:38:37.629Z,11.50
2023-05-10T01:39:37.614Z,11.50
2023-05-10T01:40:37.589Z,11.51
2023-05-10T01:41:37.608Z,11.54
2023-05-10T01:42:37.591Z,11.60
2023-05-10T01:43:37.544Z,11.57
2023-05-10T01:44:37.534Z,11.57
2023-05-10T01:45:37.526Z,11.55
2023-05-10T01:46:37.568Z,11.57
2023-05-10T01:47:37.546Z,11.59
2023-05-10T01:48:37.483Z,11.57
2023-05-10T01:49:37.477Z,11.59
2023-05-10T01:50:37.462Z,11.59
2023-05-10T01:51:37.446Z,11.57
2023-05-10T01:52:37.423Z,11.59
2023-05-10T01:53:37.416Z,11.59
2023-05-10T01:54:37.418Z,11.57
2023-05-10T01:55:37.385Z,11.60
2023-05-10T01:56:37.379Z,11.55
2023-05-10T01:57:37.374Z,11.55
2023-05-10T01:58:37.393Z,11.60
2023-05-10T01:59:37.364Z,11.52
2023-05-10T02:00:37.363Z,11.45
2023-05-10T02:01:37.327Z,11.43
2023-05-10T02:02:37.345Z,11.40
2023-05-10T02:03:37.337Z,11.40
2023-05-10T02:04:37.282Z,11.41
2023-05-10T02:05:37.260Z,11.43
2023-05-10T02:06:37.242Z,11.36
2023-05-10T02:07:37.258Z,11.36
2023-05-10T02:08:37.237Z,11.36
2023-05-10T02:09:37.219Z,11.40
2023-05-10T02:10:37.200Z,11.40
2023-05-10T02:11:37.179Z,11.43
2023-05-10T02:12:37.165Z,11.41
2023-05-10T02:13:37.158Z,11.43
2023-05-10T02:14:37.259Z,11.44
2023-05-10T02:15:37.135Z,11.48
2023-05-10T02:16:37.183Z,11.45
2023-05-10T02:17:37.176Z,11.43
2023-05-10T02:18:37.094Z,11.36
2023-05-10T02:19:37.092Z,11.41
2023-05-10T02:20:37.074Z,11.37
2023-05-10T02:21:37.056Z,11.40
2023-05-10T02:22:37.045Z,11.33
2023-05-10T02:23:37.021Z,11.35
2023-05-10T02:24:37.050Z,11.27
2023-05-10T02:25:37.011Z,11.27
2023-05-10T02:26:36.978Z,11.26
2023-05-10T02:27:36.986Z,11.27
2023-05-10T02:28:36.974Z,11.26
2023-05-10T02:29:36.970Z,11.26
2023-05-10T02:30:36.953Z,11.19
2023-05-10T02:31:36.929Z,11.18
2023-05-10T02:32:36.916Z,11.22
2023-05-10T02:33:36.894Z,11.23
2023-05-10T02:34:36.887Z,11.23
2023-05-10T02:35:36.884Z,11.23
2023-05-10T02:36:36.858Z,11.18
2023-05-10T02:37:36.844Z,11.18
2023-05-10T02:38:36.830Z,11.19
2023-05-10T02:39:36.819Z,11.22
2023-05-10T02:40:36.811Z,11.23
2023-05-10T02:41:36.793Z,11.22
2023-05-10T02:42:36.777Z,11.17
2023-05-10T02:43:36.758Z,11.19
2023-05-10T02:44:36.746Z,11.22
2023-05-10T02:45:36.741Z,11.19
2023-05-10T02:46:36.818Z,11.23
2023-05-10T02:47:36.744Z,11.22
2023-05-10T02:48:36.717Z,11.18
2023-05-10T02:49:36.686Z,11.18
2023-05-10T02:50:36.673Z,11.22
2023-05-10T02:51:36.665Z,11.23
2023-05-10T02:52:36.644Z,11.23
2023-05-10T02:53:36.641Z,11.26
2023-05-10T02:54:36.635Z,11.23
2023-05-10T02:55:36.612Z,11.29
2023-05-10T02:56:36.634Z,11.23
2023-05-10T02:57:36.586Z,11.26
2023-05-10T02:58:36.568Z,11.30
2023-05-10T02:59:36.562Z,11.30
2023-05-10T03:00:36.547Z,11.26
2023-05-10T03:01:36.557Z,11.33
2023-05-10T03:02:36.555Z,11.35
2023-05-10T03:03:36.513Z,11.32
2023-05-10T03:04:36.528Z,11.33
2023-05-10T03:05:36.481Z,11.32
2023-05-10T03:06:36.469Z,11.33
2023-05-10T03:07:36.458Z,11.32
2023-05-10T03:08:36.445Z,11.33
2023-05-10T03:09:36.439Z,11.30
2023-05-10T03:10:36.442Z,11.29
2023-05-10T03:11:36.411Z,11.30
2023-05-10T03:12:36.391Z,11.26
2023-05-10T03:13:36.389Z,11.25
2023-05-10T03:14:36.375Z,11.26
2023-05-10T03:15:36.359Z,11.25
2023-05-10T03:16:36.340Z,11.27
2023-05-10T03:17:36.363Z,11.26
2023-05-10T03:18:36.431Z,11.25
2023-05-10T03:19:36.298Z,11.18
2023-05-10T03:20:36.289Z,11.17
2023-05-10T03:21:36.283Z,11.15
2023-05-10T03:22:36.269Z,11.14
2023-05-10T03:23:36.272Z,11.10
2023-05-10T03:24:36.231Z,11.14
2023-05-10T03:25:36.212Z,11.15
2023-05-10T03:26:36.210Z,11.12
2023-05-10T03:27:36.215Z,11.18
2023-05-10T03:28:36.186Z,11.19
2023-05-10T03:29:36.172Z,11.18
2023-05-10T03:30:36.159Z,11.22
2023-05-10T03:31:36.198Z,11.15
2023-05-10T03:32:36.137Z,11.18
2023-05-10T03:33:36.123Z,11.18
2023-05-10T03:34:36.133Z,11.14
2023-05-10T03:35:36.092Z,11.15
2023-05-10T03:36:36.085Z,11.22
2023-05-10T03:37:36.070Z,11.17
2023-05-10T03:38:36.045Z,11.17
2023-05-10T03:39:36.050Z,11.15
2023-05-10T03:40:36.025Z,11.15
2023-05-10T03:41:36.009Z,11.12
2023-05-10T03:42:36.017Z,11.12
2023-05-10T03:43:36.005Z,11.12
2023-05-10T03:44:35.980Z,11.14
2023-05-10T03:45:35.974Z,11.15
2023-05-10T03:46:35.998Z,11.15
2023-05-10T03:47:36.007Z,11.12
2023-05-10T03:48:35.971Z,11.14
2023-05-10T03:49:35.906Z,11.11
2023-05-10T03:50:35.936Z,11.12
2023-05-10T03:51:35.884Z,11.12
2023-05-10T03:52:35.871Z,11.15
2023-05-10T03:53:35.863Z,11.17
2023-05-10T03:54:35.842Z,11.18
2023-05-10T03:55:35.838Z,11.22
2023-05-10T03:56:35.813Z,11.22
2023-05-10T03:57:35.812Z,11.22
2023-05-10T03:58:35.793Z,11.25
2023-05-10T03:59:35.786Z,11.27
2023-05-10T04:00:35.770Z,11.25
2023-05-10T04:01:35.801Z,11.23
2023-05-10T04:02:35.905Z,11.22
2023-05-10T04:03:35.854Z,11.17
2023-05-10T04:04:35.724Z,11.10
2023-05-10T04:05:35.715Z,11.08
2023-05-10T04:06:35.751Z,11.00
2023-05-10T04:07:35.688Z,11.02
2023-05-10T04:08:35.668Z,11.02
2023-05-10T04:09:35.658Z,10.97
2023-05-10T04:10:35.647Z,10.96
2023-05-10T04:11:35.637Z,10.97
2023-05-10T04:12:35.611Z,11.00
2023-05-10T04:13:35.600Z,10.99
2023-05-10T04:14:35.588Z,10.99
2023-05-10T04:15:35.576Z,11.00
2023-05-10T04:16:35.577Z,11.00
2023-05-10T04:17:35.565Z,11.04
2023-05-10T04:18:35.537Z,11.05
2023-05-10T04:19:35.521Z,10.97
2023-05-10T04:20:35.519Z,10.93
2023-05-10T04:21:35.502Z,10.94
2023-05-10T04:22:35.513Z,10.96
2023-05-10T04:23:35.469Z,10.99
2023-05-10T04:24:35.459Z,10.94
2023-05-10T04:25:35.439Z,11.02
2023-05-10T04:26:35.435Z,11.05
2023-05-10T04:27:35.410Z,11.04
2023-05-10T04:28:35.397Z,11.04
2023-05-10T04:29:35.385Z,11.08
2023-05-10T04:30:35.417Z,11.08
2023-05-10T04:31:35.374Z,11.11
2023-05-10T04:32:35.399Z,11.12
2023-05-10T04:33:35.332Z,11.10
2023-05-10T04:34:35.325Z,11.12
2023-05-10T04:35:35.310Z,11.14
2023-05-10T04:36:35.311Z,11.10
2023-05-10T04:37:35.286Z,11.10
2023-05-10T04:38:35.302Z,11.11
2023-05-10T04:39:35.269Z,11.12
2023-05-10T04:40:35.249Z,11.11
2023-05-10T04:41:35.233Z,11.11
2023-05-10T04:42:35.212Z,11.08
2023-05-10T04:43:35.237Z,11.11
2023-05-10T04:44:35.207Z,11.10
2023-05-10T04:45:35.169Z,11.14
2023-05-10T04:46:35.181Z,11.10
2023-05-10T04:47:35.170Z,11.15
2023-05-10T04:48:35.142Z,11.11
2023-05-10T04:49:35.127Z,11.10
2023-05-10T04:50:35.119Z,11.11
2023-05-10T04:51:35.096Z,11.12
2023-05-10T04:52:35.081Z,11.18
2023-05-10T04:53:35.075Z,11.17
2023-05-10T04:54:35.080Z,11.18
2023-05-10T04:55:35.048Z,11.15
2023-05-10T04:56:35.043Z,11.15
2023-05-10T04:57:35.018Z,11.18
2023-05-10T04:58:35.006Z,11.17
2023-05-10T04:59:34.988Z,11.17
2023-05-10T05:00:34.972Z,11.15
2023-05-10T05:01:35.056Z,11.18
2023-05-10T05:02:35.048Z,11.11
2023-05-10T05:03:34.985Z,11.12
2023-05-10T05:04:34.935Z,11.11
2023-05-10T05:05:34.906Z,11.10
2023-05-10T05:06:34.913Z,11.15
2023-05-10T05:07:34.882Z,11.15
2023-05-10T05:08:34.874Z,11.17
2023-05-10T05:09:34.883Z,11.15
2023-05-10T05:10:34.883Z,11.10
2023-05-10T05:11:34.855Z,11.10
2023-05-10T05:12:34.835Z,11.14
2023-05-10T05:13:34.812Z,11.14
2023-05-10T05:14:34.797Z,11.12
2023-05-10T05:15:34.790Z,11.11
2023-05-10T05:16:34.944Z,11.14
2023-05-10T05:17:34.764Z,11.15
2023-05-10T05:18:34.751Z,11.12
2023-05-10T05:19:34.741Z,11.11
2023-05-10T05:20:34.714Z,11.17
2023-05-10T05:21:34.710Z,11.17
2023-05-10T05:22:34.712Z,11.18
2023-05-10T05:23:34.676Z,11.15
2023-05-10T05:24:34.663Z,11.18
2023-05-10T05:25:34.658Z,11.18
2023-05-10T05:26:34.823Z,11.22
2023-05-10T05:27:34.640Z,11.18
2023-05-10T05:28:34.611Z,11.17
2023-05-10T05:29:34.621Z,11.18
2023-05-10T05:30:34.586Z,11.17
2023-05-10T05:31:34.714Z,11.15
2023-05-10T05:32:34.585Z,11.22
2023-05-10T05:33:34.557Z,11.18
2023-05-10T05:34:34.538Z,11.15
2023-05-10T05:35:34.530Z,11.17
2023-05-10T05:37:34.491Z,11.26
2023-05-10T05:38:34.519Z,11.32
2023-05-10T05:39:34.481Z,11.35
2023-05-10T05:40:34.456Z,11.32
2023-05-10T05:41:34.436Z,11.36
2023-05-10T05:42:34.459Z,11.37
2023-05-10T05:43:35.560Z,11.33
2023-05-10T05:44:34.406Z,11.37
2023-05-10T05:45:34.451Z,11.40
2023-05-10T05:46:34.368Z,11.36
2023-05-10T05:47:34.401Z,11.35
2023-05-10T05:48:34.350Z,11.33
2023-05-10T05:49:34.333Z,11.35
2023-05-10T05:50:34.333Z,11.37
2023-05-10T05:51:34.316Z,11.36
2023-05-10T05:52:34.294Z,11.40
2023-05-10T05:53:34.297Z,11.40
2023-05-10T05:54:34.289Z,11.45
2023-05-10T05:55:34.257Z,11.41
2023-05-10T05:56:34.241Z,11.47
2023-05-10T05:57:34.236Z,11.44
2023-05-10T05:58:34.257Z,11.44
2023-05-10T05:59:34.207Z,11.48
2023-05-10T06:00:34.199Z,11.48
2023-05-10T06:01:34.191Z,11.52
2023-05-10T06:02:34.312Z,11.51
2023-05-10T06:03:34.202Z,11.51
2023-05-10T06:04:34.240Z,11.51
2023-05-10T06:05:34.130Z,11.52
2023-05-10T06:06:34.110Z,11.54
2023-05-10T06:07:34.110Z,11.52
2023-05-10T06:08:34.087Z,11.55
2023-05-10T06:09:34.082Z,11.62
2023-05-10T06:10:34.069Z,11.59
2023-05-10T06:11:34.058Z,11.62
2023-05-10T06:12:34.038Z,11.65
2023-05-10T06:13:34.086Z,11.68
2023-05-10T06:14:34.038Z,11.65
2023-05-10T06:15:34.014Z,11.66
2023-05-10T06:16:33.990Z,11.63
2023-05-10T06:17:33.988Z,11.63
2023-05-10T06:18:33.960Z,11.63
2023-05-10T06:19:33.949Z,11.62
2023-05-10T06:20:33.942Z,11.62
2023-05-10T06:21:33.932Z,11.65
2023-05-10T06:22:33.901Z,11.68
2023-05-10T06:23:33.898Z,11.65
2023-05-10T06:24:33.877Z,11.65
2023-05-10T06:25:33.866Z,11.62
2023-05-10T06:26:33.852Z,11.60
2023-05-10T06:27:33.837Z,11.65
2023-05-10T06:28:33.848Z,11.63
2023-05-10T06:29:33.818Z,11.63
2023-05-10T06:30:33.943Z,11.69
2023-05-10T06:31:33.834Z,11.72
2023-05-10T06:32:33.797Z,11.75
2023-05-10T06:33:33.769Z,11.73
2023-05-10T06:34:33.760Z,11.75
2023-05-10T06:35:33.741Z,11.78
2023-05-10T06:36:33.743Z,11.73
2023-05-10T06:37:33.718Z,11.77
2023-05-10T06:38:33.699Z,11.77
2023-05-10T06:39:33.688Z,11.73
2023-05-10T06:40:33.675Z,11.77
2023-05-10T06:41:33.662Z,11.70
2023-05-10T06:42:33.650Z,11.69
2023-05-10T06:43:33.646Z,11.73
2023-05-10T06:44:33.632Z,11.77
2023-05-10T06:45:33.611Z,11.75
2023-05-10T06:46:33.682Z,11.80
2023-05-10T06:47:34.111Z,11.81
2023-05-10T06:48:33.573Z,11.80
2023-05-10T06:49:33.557Z,11.81
2023-05-10T06:50:33.551Z,11.80
2023-05-10T06:51:33.533Z,11.83
2023-05-10T06:52:33.520Z,11.86
2023-05-10T06:53:33.510Z,11.88
2023-05-10T06:54:33.493Z,11.90
2023-05-10T06:55:33.487Z,11.91
2023-05-10T06:56:33.473Z,11.99
2023-05-10T06:57:33.460Z,11.95
2023-05-10T06:58:33.449Z,11.91
2023-05-10T06:59:33.470Z,11.90
2023-05-10T07:00:33.492Z,11.90
2023-05-10T07:01:33.496Z,11.95
2023-05-10T07:02:33.440Z,12.04
2023-05-10T07:03:33.364Z,12.06
2023-05-10T07:04:33.370Z,12.13
2023-05-10T07:05:33.469Z,12.10
2023-05-10T07:06:34.059Z,12.13
2023-05-10T07:07:33.329Z,12.13
2023-05-10T07:08:33.307Z,12.13
2023-05-10T07:09:33.283Z,12.10
2023-05-10T07:10:33.288Z,12.18
2023-05-10T07:11:33.262Z,12.21
2023-05-10T07:12:33.264Z,12.20
2023-05-10T07:13:33.329Z,12.24
2023-05-10T07:14:33.231Z,12.24
2023-05-10T07:15:33.213Z,12.25
2023-05-10T07:16:33.343Z,12.32
2023-05-10T07:17:33.301Z,12.31
2023-05-10T07:18:33.347Z,12.36
2023-05-10T07:19:33.168Z,12.42
2023-05-10T07:20:33.163Z,12.39
2023-05-10T07:21:33.283Z,12.40
2023-05-10T07:22:33.119Z,12.53
2023-05-10T07:23:33.116Z,12.47
2023-05-10T07:24:33.108Z,12.53
2023-05-10T07:25:33.102Z,12.46
2023-05-10T07:26:33.067Z,12.53
2023-05-10T07:27:33.058Z,12.53
2023-05-10T07:28:33.049Z,12.57
2023-05-10T07:29:33.044Z,12.53
2023-05-10T07:30:33.042Z,12.49
2023-05-10T07:31:33.046Z,12.53
2023-05-10T07:32:33.239Z,12.58
2023-05-10T07:33:32.989Z,12.62
2023-05-10T07:34:33.004Z,12.73
2023-05-10T07:35:32.957Z,12.90
2023-05-10T07:36:32.944Z,13.08
2023-05-10T07:37:32.935Z,13.20
2023-05-10T07:38:32.929Z,13.23
2023-05-10T07:39:32.897Z,13.20
2023-05-10T07:40:32.922Z,13.15
2023-05-10T07:41:33.926Z,13.20
2023-05-10T07:42:32.875Z,13.16
2023-05-10T07:43:32.850Z,13.04
2023-05-10T07:44:32.829Z,13.00
2023-05-10T07:45:32.863Z,12.94
2023-05-10T07:46:32.806Z,12.82
2023-05-10T07:47:32.835Z,12.82
2023-05-10T07:48:32.780Z,12.85
2023-05-10T07:49:32.764Z,12.85
2023-05-10T07:50:32.784Z,12.91
2023-05-10T07:51:32.750Z,12.90
2023-05-10T07:52:32.737Z,12.94
2023-05-10T07:53:32.728Z,12.90
2023-05-10T07:54:32.714Z,12.83
2023-05-10T07:55:32.730Z,12.85
2023-05-10T07:56:32.704Z,12.90
2023-05-10T07:57:32.677Z,13.22
2023-05-10T07:58:32.653Z,13.28
2023-05-10T07:59:32.631Z,13.23
2023-05-10T08:00:32.635Z,13.31
2023-05-10T08:01:32.620Z,13.35
2023-05-10T08:02:32.729Z,13.28
2023-05-10T08:03:32.758Z,13.38
2023-05-10T08:04:32.677Z,13.44
2023-05-10T08:05:34.636Z,13.46
2023-05-10T08:06:32.586Z,13.44
2023-05-10T08:07:32.536Z,13.46
2023-05-10T08:08:32.527Z,13.57
2023-05-10T08:09:32.523Z,13.70
2023-05-10T08:10:32.500Z,13.85
2023-05-10T08:11:34.318Z,13.97
2023-05-10T08:12:32.480Z,14.04
2023-05-10T08:13:32.458Z,14.14
2023-05-10T08:14:32.433Z,14.22
2023-05-10T08:15:32.432Z,14.28
2023-05-10T08:16:32.540Z,14.30
2023-05-10T08:17:32.460Z,14.37
2023-05-10T08:18:32.413Z,14.43
2023-05-10T08:19:32.382Z,14.48
2023-05-10T08:20:32.378Z,14.54
2023-05-10T08:21:32.354Z,14.48
2023-05-10T08:22:32.407Z,14.41
2023-05-10T08:23:32.321Z,14.32
2023-05-10T08:24:32.316Z,14.17
2023-05-10T08:25:32.298Z,14.05
2023-05-10T08:26:32.284Z,13.89
2023-05-10T08:27:32.263Z,13.75
2023-05-10T08:28:32.273Z,13.63
2023-05-10T08:29:42.321Z,13.46
2023-05-10T08:30:33.256Z,13.37
2023-05-10T08:31:32.251Z,13.27
2023-05-10T08:32:32.273Z,13.11
2023-05-10T08:33:32.201Z,13.03
2023-05-10T08:34:32.198Z,12.94
2023-05-10T08:35:32.173Z,12.87
2023-05-10T08:36:32.152Z,12.90
2023-05-10T08:37:32.149Z,12.78
2023-05-10T08:38:32.168Z,12.67
2023-05-10T08:39:32.135Z,12.57
2023-05-10T08:40:32.095Z,12.40
2023-05-10T08:41:32.091Z,12.28
2023-05-10T08:42:32.084Z,12.02
2023-05-10T08:43:32.079Z,11.84
2023-05-10T08:44:32.050Z,11.73
2023-05-10T08:45:32.054Z,11.55
2023-05-10T08:46:32.063Z,11.50
2023-05-10T08:47:32.038Z,11.44
2023-05-10T08:48:32.023Z,11.40
2023-05-10T08:49:31.987Z,11.36
2023-05-10T08:50:31.980Z,11.35
2023-05-10T08:51:31.964Z,11.36
2023-05-10T08:52:31.965Z,11.25
2023-05-10T08:53:31.957Z,11.25
2023-05-10T08:54:31.980Z,11.25
2023-05-10T08:55:31.917Z,11.27
2023-05-10T08:56:31.907Z,11.35
2023-05-10T08:57:31.908Z,11.29
2023-05-10T08:58:31.880Z,11.33
2023-05-10T08:59:31.957Z,11.33
2023-05-10T09:00:31.888Z,11.32
2023-05-10T09:01:31.988Z,11.30
2023-05-10T09:02:31.896Z,11.33
2023-05-10T09:03:31.818Z,11.30
2023-05-10T09:04:31.900Z,11.30
2023-05-10T09:05:31.837Z,11.25
2023-05-10T09:06:31.782Z,11.25
2023-05-10T09:07:31.762Z,11.17
2023-05-10T09:08:31.755Z,11.15
2023-05-10T09:09:31.743Z,11.17
2023-05-10T09:10:31.757Z,11.15
2023-05-10T09:11:31.708Z,11.11
2023-05-10T09:12:31.703Z,11.19
2023-05-10T09:13:31.698Z,11.19
2023-05-10T09:14:31.668Z,11.15
2023-05-10T09:15:31.656Z,11.11
2023-05-10T09:16:31.705Z,11.11
2023-05-10T09:17:31.685Z,11.11
2023-05-10T09:18:31.644Z,11.14
2023-05-10T09:19:31.614Z,11.17
2023-05-10T09:20:31.596Z,11.25
2023-05-10T09:21:31.592Z,11.32
2023-05-10T09:22:31.573Z,11.40
2023-05-10T09:23:31.563Z,11.44
2023-05-10T09:24:31.556Z,11.41
2023-05-10T09:25:31.542Z,11.43
2023-05-10T09:26:31.591Z,11.43
2023-05-10T09:27:31.509Z,11.51
2023-05-10T09:28:31.488Z,11.52
2023-05-10T09:29:31.477Z,11.55
2023-05-10T09:30:31.511Z,11.66
2023-05-10T09:31:31.482Z,11.66
2023-05-10T09:32:31.446Z,11.69
2023-05-10T09:33:31.428Z,11.78
2023-05-10T09:34:31.419Z,11.84
2023-05-10T09:35:31.397Z,11.87
2023-05-10T09:36:31.390Z,11.94
2023-05-10T09:37:31.383Z,12.00
2023-05-10T09:38:31.368Z,12.03
2023-05-10T09:39:31.342Z,12.04
2023-05-10T09:40:31.341Z,12.20
2023-05-10T09:41:31.318Z,12.29
2023-05-10T09:42:31.372Z,12.42
2023-05-10T09:43:31.307Z,12.50
2023-05-10T09:44:31.289Z,12.64
2023-05-10T09:45:31.286Z,12.76
2023-05-10T09:46:31.360Z,12.83
2023-05-10T09:47:31.382Z,12.85
2023-05-10T09:48:31.266Z,12.93
2023-05-10T09:49:31.228Z,12.98
2023-05-10T09:50:31.204Z,13.00
2023-05-10T09:51:31.212Z,13.13
2023-05-10T09:52:31.184Z,13.13
2023-05-10T09:53:31.168Z,13.16
2023-05-10T09:54:31.153Z,13.13
2023-05-10T09:55:31.159Z,13.13
2023-05-10T09:56:31.129Z,13.13
2023-05-10T09:57:32.322Z,13.09
2023-05-10T09:58:31.128Z,13.09
2023-05-10T09:59:31.085Z,13.13
2023-05-10T10:00:31.094Z,13.00
2023-05-10T10:01:31.111Z,12.93
2023-05-10T10:02:31.072Z,12.94
2023-05-10T10:03:31.049Z,12.97
2023-05-10T10:04:31.076Z,12.98
2023-05-10T10:05:31.021Z,12.95
2023-05-10T10:06:31.005Z,12.91
2023-05-10T10:07:30.995Z,12.90
2023-05-10T10:08:30.973Z,12.98
2023-05-10T10:09:30.953Z,12.95
2023-05-10T10:10:30.941Z,12.97
2023-05-10T10:11:30.929Z,12.97
2023-05-10T10:12:30.917Z,12.94
2023-05-10T10:13:30.913Z,12.97
2023-05-10T10:14:30.955Z,13.04
2023-05-10T10:15:30.895Z,13.04
2023-05-10T10:16:30.933Z,13.19
2023-05-10T10:17:30.885Z,13.22
2023-05-10T10:18:30.871Z,13.18
2023-05-10T10:19:30.856Z,13.28
2023-05-10T10:20:30.817Z,13.30
2023-05-10T10:21:30.803Z,13.33
2023-05-10T10:22:30.806Z,13.41
2023-05-10T10:23:30.811Z,13.50
2023-05-10T10:24:30.817Z,13.46
2023-05-10T10:25:30.760Z,13.52
2023-05-10T10:26:30.735Z,13.52
2023-05-10T10:27:30.720Z,13.54
2023-05-10T10:28:30.723Z,13.50
2023-05-10T10:29:30.709Z,13.44
2023-05-10T10:30:30.732Z,13.37
2023-05-10T10:31:30.706Z,13.38
2023-05-10T10:32:30.683Z,13.37
2023-05-10T10:33:30.719Z,13.23
2023-05-10T10:34:30.640Z,13.18
2023-05-10T10:35:30.635Z,13.18
2023-05-10T10:36:30.629Z,13.23
2023-05-10T10:37:30.595Z,13.18
2023-05-10T10:38:30.589Z,13.20
2023-05-10T10:39:30.575Z,13.19
2023-05-10T10:40:32.660Z,13.18
2023-05-10T10:41:30.543Z,13.23
2023-05-10T10:42:30.529Z,13.23
2023-05-10T10:43:30.573Z,13.18
2023-05-10T10:44:30.519Z,13.19
2023-05-10T10:45:30.499Z,13.33
2023-05-10T10:46:30.683Z,13.33
2023-05-10T10:47:30.487Z,13.38
2023-05-10T10:48:30.449Z,13.49
2023-05-10T10:49:30.443Z,13.57
2023-05-10T10:50:30.423Z,13.63
2023-05-10T10:51:30.417Z,13.56
2023-05-10T10:52:30.403Z,13.56
2023-05-10T10:53:30.516Z,13.62
2023-05-10T10:54:30.370Z,13.60
2023-05-10T10:55:30.367Z,13.63
2023-05-10T10:56:30.353Z,13.62
2023-05-10T10:57:30.332Z,13.67
2023-05-10T10:58:30.331Z,13.65
2023-05-10T10:59:30.304Z,13.62
2023-05-10T11:00:30.294Z,13.63
2023-05-10T11:01:30.406Z,13.71
2023-05-10T11:02:31.356Z,13.67
2023-05-10T11:03:30.257Z,13.71
2023-05-10T11:04:30.330Z,13.71
2023-05-10T11:05:30.235Z,13.81
2023-05-10T11:06:30.214Z,13.83
2023-05-10T11:07:30.201Z,13.86
2023-05-10T11:08:30.207Z,13.86
2023-05-10T11:09:30.187Z,13.92
2023-05-10T11:10:30.169Z,13.97
2023-05-10T11:11:30.151Z,14.03
2023-05-10T11:12:30.136Z,13.96
2023-05-10T11:13:30.124Z,13.99
2023-05-10T11:14:30.115Z,13.95
2023-05-10T11:15:30.101Z,13.93
2023-05-10T11:16:30.123Z,13.87
2023-05-10T11:17:30.179Z,13.87
2023-05-10T11:18:30.116Z,13.93
2023-05-10T11:19:30.069Z,13.89
2023-05-10T11:20:30.045Z,13.93
2023-05-10T11:21:30.024Z,13.97
2023-05-10T11:22:30.021Z,13.97
2023-05-10T11:23:29.992Z,13.99
2023-05-10T11:24:29.986Z,14.03
2023-05-10T11:25:29.972Z,13.97
2023-05-10T11:26:29.959Z,14.07
2023-05-10T11:27:29.946Z,14.11
2023-05-10T11:28:29.939Z,14.03
2023-05-10T11:29:29.924Z,14.04
2023-05-10T11:30:29.922Z,14.00
2023-05-10T11:31:29.963Z,13.97
2023-05-10T11:32:29.896Z,13.92
2023-05-10T11:33:29.867Z,13.92
2023-05-10T11:34:29.895Z,13.81
2023-05-10T11:35:29.850Z,13.60
2023-05-10T11:36:29.846Z,13.53
2023-05-10T11:37:29.812Z,13.41
2023-05-10T11:38:29.808Z,13.23
2023-05-10T11:39:29.838Z,13.27
2023-05-10T11:40:29.801Z,13.19
2023-05-10T11:41:29.776Z,13.13
2023-05-10T11:42:29.797Z,13.04
2023-05-10T11:43:29.755Z,13.09
2023-05-10T11:44:29.759Z,13.01
2023-05-10T11:45:29.747Z,13.00
2023-05-10T11:46:29.767Z,13.03
2023-05-10T11:47:29.770Z,13.09
2023-05-10T11:48:29.688Z,13.12
2023-05-10T11:49:29.683Z,13.12
2023-05-10T11:50:29.700Z,13.13
2023-05-10T11:51:29.641Z,13.13
2023-05-10T11:52:29.629Z,13.22
2023-05-10T11:53:29.619Z,13.28
2023-05-10T11:54:29.606Z,13.33
2023-05-10T11:55:29.583Z,13.37
2023-05-10T11:56:29.571Z,13.35
2023-05-10T11:57:29.612Z,13.44
2023-05-10T11:58:29.551Z,13.52
2023-05-10T11:59:29.544Z,13.50
2023-05-10T12:00:29.517Z,13.52
2023-05-10T12:01:29.516Z,13.54
2023-05-10T12:02:29.570Z,13.54
2023-05-10T12:03:29.637Z,13.46
2023-05-10T12:04:29.547Z,13.53
2023-05-10T12:05:29.453Z,13.57
2023-05-10T12:06:29.485Z,13.60
2023-05-10T12:07:29.437Z,13.52
2023-05-10T12:08:29.418Z,13.63
2023-05-10T12:09:42.552Z,13.63
2023-05-10T12:10:30.429Z,13.70
2023-05-10T12:11:29.385Z,13.77
2023-05-10T12:12:29.367Z,13.79
2023-05-10T12:13:29.351Z,13.86
2023-05-10T12:14:29.337Z,13.87
2023-05-10T12:15:29.339Z,13.86
2023-05-10T12:16:29.445Z,13.86
2023-05-10T12:17:29.320Z,13.96
2023-05-10T12:18:29.345Z,14.04
2023-05-10T12:19:29.271Z,14.10
2023-05-10T12:20:29.271Z,14.14
2023-05-10T12:21:29.312Z,14.25
2023-05-10T12:22:29.292Z,14.26
2023-05-10T12:23:29.238Z,14.29
2023-05-10T12:24:29.218Z,14.32
2023-05-10T12:25:29.235Z,14.36
2023-05-10T12:26:29.198Z,14.29
2023-05-10T12:27:29.180Z,14.26
2023-05-10T12:28:29.169Z,14.33
2023-05-10T12:29:29.150Z,14.28
2023-05-10T12:30:29.134Z,14.28
2023-05-10T12:31:29.146Z,14.26
2023-05-10T12:32:29.132Z,14.33
2023-05-10T12:33:29.096Z,14.37
2023-05-10T12:34:29.088Z,14.40
2023-05-10T12:35:29.085Z,14.37
2023-05-10T12:36:29.057Z,14.43
2023-05-10T12:37:29.048Z,14.37
2023-05-10T12:38:29.061Z,14.40
2023-05-10T12:39:29.039Z,14.30
2023-05-10T12:40:29.023Z,14.22
2023-05-10T12:41:28.997Z,14.23
2023-05-10T12:42:28.982Z,14.15
2023-05-10T12:43:28.965Z,14.15
2023-05-10T12:44:28.962Z,14.14
2023-05-10T12:45:28.948Z,14.10
2023-05-10T12:46:28.998Z,14.08
2023-05-10T12:47:28.957Z,14.07
2023-05-10T12:48:28.901Z,14.03
2023-05-10T12:49:28.890Z,14.07
2023-05-10T12:50:28.946Z,14.11
2023-05-10T12:51:28.863Z,14.08
2023-05-10T12:52:28.860Z,14.10
2023-05-10T12:53:28.863Z,14.22